createdAt,value
2022-07-25T00:02:01.264Z,22.50
2022-07-25T00:04:29.913Z,22.50
2022-07-25T00:06:59.124Z,22.70
2022-07-25T00:09:26.850Z,22.80
2022-07-25T00:11:54.605Z,22.90
2022-07-25T00:14:22.418Z,22.90
2022-07-25T00:16:50.138Z,23.00
2022-07-25T00:19:18.120Z,23.00
2022-07-25T00:21:45.881Z,22.90
2022-07-25T00:24:14.946Z,22.80
2022-07-25T00:26:42.638Z,22.70
2022-07-25T00:29:10.616Z,22.70
2022-07-25T00:31:38.479Z,22.60
2022-07-25T00:34:06.593Z,22.70
2022-07-25T00:36:34.656Z,22.70
2022-07-25T00:39:02.491Z,22.60
2022-07-25T00:41:31.591Z,22.60
2022-07-25T00:43:59.434Z,22.60
2022-07-25T00:46:27.231Z,22.50
2022-07-25T00:48:55.485Z,22.40
2022-07-25T00:51:23.744Z,22.30
2022-07-25T00:53:51.488Z,22.20
2022-07-25T00:56:19.592Z,22.10
2022-07-25T00:58:48.671Z,22.20
2022-07-25T01:01:16.638Z,22.10
2022-07-25T01:03:44.478Z,22.10
2022-07-25T01:06:12.499Z,22.10
2022-07-25T01:08:40.432Z,22.00
2022-07-25T01:11:10.592Z,22.00
2022-07-25T01:13:38.382Z,22.00
2022-07-25T01:16:07.882Z,22.00
2022-07-25T01:18:35.624Z,22.00
2022-07-25T01:21:04.876Z,22.00
2022-07-25T01:23:32.682Z,21.90
2022-07-25T01:26:00.490Z,22.00
2022-07-25T01:28:28.251Z,22.00
2022-07-25T01:30:56.005Z,21.90
2022-07-25T01:33:23.806Z,21.90
2022-07-25T01:35:51.575Z,21.80
2022-07-25T01:38:20.661Z,21.80
2022-07-25T01:40:48.418Z,21.80
2022-07-25T01:43:16.154Z,21.80
2022-07-25T01:45:43.876Z,21.70
2022-07-25T01:48:11.620Z,21.70
2022-07-25T01:50:39.410Z,21.70
2022-07-25T01:53:07.184Z,21.70
2022-07-25T01:55:36.354Z,21.70
2022-07-25T01:58:04.330Z,21.60
2022-07-25T02:00:34.066Z,21.60
2022-07-25T02:03:19.480Z,21.60
2022-07-25T02:05:47.219Z,21.60
2022-07-25T02:08:14.952Z,21.50
2022-07-25T02:10:44.240Z,21.50
2022-07-25T02:13:11.954Z,21.50
2022-07-25T02:15:39.689Z,21.60
2022-07-25T02:18:07.425Z,21.50
2022-07-25T02:20:35.201Z,21.50
2022-07-25T02:23:03.656Z,21.50
2022-07-25T02:25:31.524Z,21.40
2022-07-25T02:28:01.008Z,21.30
2022-07-25T02:30:29.085Z,21.30
2022-07-25T02:32:56.872Z,21.20
2022-07-25T02:35:24.650Z,21.20
2022-07-25T02:37:52.439Z,21.10
2022-07-25T02:40:20.170Z,21.10
2022-07-25T02:42:47.916Z,21.10
2022-07-25T02:45:17.042Z,21.00
2022-07-25T02:47:44.868Z,21.00
2022-07-25T02:50:15.024Z,21.00
2022-07-25T02:52:42.975Z,21.10
2022-07-25T02:55:11.542Z,21.10
2022-07-25T02:57:39.409Z,21.20
2022-07-25T03:00:08.265Z,21.20
2022-07-25T03:02:37.359Z,21.20
2022-07-25T03:05:06.759Z,21.20
2022-07-25T03:07:34.546Z,21.20
2022-07-25T03:10:02.334Z,21.20
2022-07-25T03:12:36.683Z,21.10
2022-07-25T03:15:05.564Z,21.10
2022-07-25T03:17:33.577Z,21.10
2022-07-25T03:20:02.752Z,21.10
2022-07-25T03:22:30.505Z,21.00
2022-07-25T03:24:58.242Z,21.00
2022-07-25T03:27:26.032Z,20.80
2022-07-25T03:29:54.331Z,20.80
2022-07-25T03:32:23.138Z,20.80
2022-07-25T03:34:50.831Z,20.80
2022-07-25T03:37:19.930Z,20.90
2022-07-25T03:39:47.682Z,21.00
2022-07-25T03:42:15.436Z,21.00
2022-07-25T03:44:43.210Z,21.00
2022-07-25T03:47:10.935Z,21.10
2022-07-25T03:49:48.696Z,21.10
2022-07-25T03:52:16.409Z,21.10
2022-07-25T03:54:45.476Z,21.20
2022-07-25T03:57:13.299Z,21.20
2022-07-25T03:59:41.028Z,21.30
2022-07-25T04:02:08.812Z,21.30
2022-07-25T04:04:36.714Z,21.30
2022-07-25T04:07:05.381Z,21.30
2022-07-25T04:09:33.798Z,21.30
2022-07-25T04:12:04.235Z,21.30
2022-07-25T04:14:31.931Z,21.30
2022-07-25T04:16:59.928Z,21.30
2022-07-25T04:19:28.843Z,21.20
2022-07-25T04:21:56.804Z,21.30
2022-07-25T04:24:24.547Z,21.30
2022-07-25T04:26:52.305Z,21.30
2022-07-25T04:29:21.344Z,21.30
2022-07-25T04:31:49.124Z,21.30
2022-07-25T04:34:16.928Z,21.30
2022-07-25T04:36:44.663Z,21.20
2022-07-25T04:39:12.407Z,21.20
2022-07-25T04:41:40.168Z,21.20
2022-07-25T04:44:08.940Z,21.30
2022-07-25T04:46:38.491Z,21.30
2022-07-25T04:49:06.308Z,21.40
2022-07-25T04:51:34.061Z,21.40
2022-07-25T04:54:01.783Z,21.50
2022-07-25T04:56:29.564Z,21.50
2022-07-25T04:59:00.611Z,21.60
2022-07-25T05:01:31.086Z,21.60
2022-07-25T05:04:00.167Z,21.70
2022-07-25T05:06:27.986Z,21.70
2022-07-25T05:08:55.786Z,21.80
2022-07-25T05:11:23.504Z,21.80
2022-07-25T05:13:51.904Z,21.80
2022-07-25T05:16:19.692Z,21.80
2022-07-25T05:18:47.428Z,21.90
2022-07-25T05:21:16.475Z,22.00
2022-07-25T05:23:44.215Z,22.10
2022-07-25T05:26:11.987Z,22.20
2022-07-25T05:28:39.739Z,22.20
2022-07-25T05:31:07.641Z,22.30
2022-07-25T05:33:35.651Z,22.30
2022-07-25T05:36:05.092Z,22.40
2022-07-25T05:38:34.434Z,22.50
2022-07-25T05:41:02.156Z,22.60
2022-07-25T05:43:29.890Z,22.70
2022-07-25T05:46:01.117Z,22.80
2022-07-25T05:48:28.882Z,22.80
2022-07-25T05:50:56.754Z,22.90
2022-07-25T05:53:24.541Z,23.00
2022-07-25T05:55:53.622Z,23.00
2022-07-25T05:58:23.954Z,23.00
2022-07-25T06:00:55.593Z,23.10
2022-07-25T06:03:23.426Z,23.20
2022-07-25T06:05:51.220Z,23.30
2022-07-25T06:08:18.958Z,23.40
2022-07-25T06:10:46.760Z,23.50
2022-07-25T06:13:16.107Z,23.60
2022-07-25T06:15:43.862Z,23.70
2022-07-25T06:18:13.536Z,23.70
2022-07-25T06:20:41.252Z,23.80
2022-07-25T06:23:09.086Z,23.90
2022-07-25T06:25:36.835Z,24.00
2022-07-25T06:28:04.662Z,24.00
2022-07-25T06:30:33.978Z,24.10
2022-07-25T06:33:01.868Z,24.30
2022-07-25T06:35:29.603Z,24.40
2022-07-25T06:37:57.325Z,24.60
2022-07-25T06:40:25.321Z,24.80
2022-07-25T06:42:53.523Z,24.90
2022-07-25T06:45:21.287Z,25.00
2022-07-25T06:47:50.347Z,25.10
2022-07-25T06:50:21.379Z,25.20
2022-07-25T06:52:49.467Z,25.30
2022-07-25T06:55:17.258Z,25.40
2022-07-25T06:57:44.972Z,25.60
2022-07-25T07:00:13.800Z,25.60
2022-07-25T07:02:53.483Z,25.70
2022-07-25T07:05:21.648Z,25.80
2022-07-25T07:07:49.362Z,26.00
2022-07-25T07:10:17.139Z,26.00
2022-07-25T07:12:45.017Z,26.10
2022-07-25T07:15:13.127Z,26.30
2022-07-25T07:17:40.862Z,26.40
2022-07-25T07:20:10.655Z,26.50
2022-07-25T07:22:45.283Z,26.50
2022-07-25T07:25:14.054Z,26.60
2022-07-25T07:27:41.950Z,26.80
2022-07-25T07:30:10.530Z,26.90
2022-07-25T07:32:39.153Z,26.90
2022-07-25T07:35:07.374Z,27.10
2022-07-25T07:37:41.392Z,27.00
2022-07-25T07:40:17.142Z,27.20
2022-07-25T07:42:47.049Z,27.20
2022-07-25T07:45:15.414Z,27.50
2022-07-25T07:47:43.183Z,27.60
2022-07-25T07:50:11.291Z,27.70
2022-07-25T07:52:40.372Z,27.90
2022-07-25T07:55:26.000Z,28.00
2022-07-25T07:57:53.751Z,28.00
2022-07-25T08:00:21.717Z,28.00
2022-07-25T08:02:50.987Z,28.00
2022-07-25T08:05:23.116Z,28.00
2022-07-25T08:07:52.542Z,28.20
2022-07-25T08:10:21.633Z,28.30
2022-07-25T08:12:50.004Z,28.50
2022-07-25T08:15:18.576Z,28.60
2022-07-25T08:17:46.977Z,28.80
2022-07-25T08:20:37.001Z,29.10
2022-07-25T08:23:04.601Z,29.20
2022-07-25T08:25:32.388Z,29.50
2022-07-25T08:28:00.472Z,29.70
2022-07-25T08:30:28.202Z,29.80
2022-07-25T08:32:57.270Z,29.90
2022-07-25T08:35:25.740Z,30.00
2022-07-25T08:37:53.789Z,30.20
2022-07-25T08:40:23.781Z,30.40
2022-07-25T08:42:51.765Z,30.60
2022-07-25T08:45:20.415Z,30.40
2022-07-25T08:47:48.556Z,30.50
2022-07-25T08:50:17.209Z,30.80
2022-07-25T08:52:45.404Z,30.90
2022-07-25T08:55:14.686Z,31.00
2022-07-25T08:57:44.903Z,31.00
2022-07-25T09:00:13.545Z,31.30
2022-07-25T09:02:41.453Z,31.50
2022-07-25T09:05:09.829Z,31.60
2022-07-25T09:07:38.520Z,31.60
2022-07-25T09:10:13.084Z,31.70
2022-07-25T09:12:41.038Z,31.90
2022-07-25T09:15:10.593Z,32.30
2022-07-25T09:17:50.444Z,32.70
2022-07-25T09:20:18.610Z,33.00
2022-07-25T09:22:46.617Z,33.20
2022-07-25T09:25:24.608Z,33.00
2022-07-25T09:27:52.697Z,33.00
2022-07-25T09:30:21.799Z,33.00
2022-07-25T09:32:59.683Z,33.30
2022-07-25T09:35:31.063Z,33.20
2022-07-25T09:38:07.653Z,33.40
2022-07-25T09:40:35.349Z,33.70
2022-07-25T09:43:03.054Z,33.70
2022-07-25T09:45:32.360Z,34.00
2022-07-25T09:48:00.930Z,34.60
2022-07-25T09:50:29.686Z,34.60
2022-07-25T09:52:58.505Z,34.60
2022-07-25T09:55:26.288Z,34.60
2022-07-25T09:57:54.043Z,34.60
2022-07-25T10:00:23.412Z,34.20
2022-07-25T10:02:57.330Z,34.00
2022-07-25T10:05:31.834Z,34.00
2022-07-25T10:08:00.051Z,34.20
2022-07-25T10:10:28.718Z,34.60
2022-07-25T10:13:00.917Z,34.60
2022-07-25T10:15:39.871Z,34.80
2022-07-25T10:18:09.231Z,34.90
2022-07-25T10:20:37.216Z,35.10
2022-07-25T10:23:05.989Z,35.00
2022-07-25T10:25:33.915Z,35.00
2022-07-25T10:28:08.227Z,35.20
2022-07-25T10:30:37.396Z,35.30
2022-07-25T10:33:06.462Z,35.40
2022-07-25T10:35:35.565Z,35.60
2022-07-25T10:38:04.898Z,35.90
2022-07-25T10:40:36.675Z,36.10
2022-07-25T10:43:14.111Z,36.00
2022-07-25T10:45:42.545Z,36.00
2022-07-25T10:48:11.510Z,35.80
2022-07-25T10:50:58.135Z,35.50
2022-07-25T10:53:32.983Z,35.70
2022-07-25T10:56:06.302Z,35.90
2022-07-25T10:58:48.376Z,36.10
2022-07-25T11:01:20.176Z,36.30
2022-07-25T11:03:47.914Z,36.50
2022-07-25T11:06:17.686Z,36.50
2022-07-25T11:08:45.790Z,36.50
2022-07-25T11:11:14.050Z,36.60
2022-07-25T11:13:44.263Z,36.60
2022-07-25T11:16:12.258Z,36.20
2022-07-25T11:18:41.721Z,36.30
2022-07-25T11:21:09.873Z,36.50
2022-07-25T11:23:41.256Z,36.80
2022-07-25T11:26:10.274Z,36.70
2022-07-25T11:28:41.537Z,36.60
2022-07-25T11:31:09.497Z,36.70
2022-07-25T11:33:38.766Z,37.20
2022-07-25T11:36:07.201Z,37.40
2022-07-25T11:38:36.901Z,37.90
2022-07-25T11:41:06.066Z,38.00
2022-07-25T11:43:33.925Z,38.10
2022-07-25T11:46:02.707Z,37.90
2022-07-25T11:48:32.208Z,37.50
2022-07-25T11:51:09.567Z,36.90
2022-07-25T11:53:41.859Z,36.40
2022-07-25T11:56:40.842Z,36.00
2022-07-25T11:59:05.789Z,36.10
2022-07-25T12:01:37.608Z,36.40
2022-07-25T12:04:09.088Z,36.30
2022-07-25T12:06:37.013Z,36.30
2022-07-25T12:09:16.332Z,36.10
2022-07-25T12:11:48.064Z,36.10
2022-07-25T12:14:16.108Z,36.20
2022-07-25T12:16:43.917Z,36.30
2022-07-25T12:19:18.879Z,37.00
2022-07-25T12:21:46.670Z,37.00
2022-07-25T12:24:14.508Z,36.90
2022-07-25T12:26:42.519Z,36.90
2022-07-25T12:29:11.562Z,37.00
2022-07-25T12:31:39.367Z,36.80
2022-07-25T12:34:07.208Z,36.50
2022-07-25T12:36:41.069Z,36.50
2022-07-25T12:39:09.267Z,36.40
2022-07-25T12:41:37.297Z,36.30
2022-07-25T12:44:05.196Z,36.20
2022-07-25T12:46:34.576Z,36.10
2022-07-25T12:49:03.606Z,35.90
2022-07-25T12:51:31.602Z,35.80
2022-07-25T12:53:59.425Z,35.60
2022-07-25T12:56:27.153Z,35.30
2022-07-25T12:58:55.745Z,35.10
2022-07-25T13:01:23.637Z,34.90
2022-07-25T13:03:52.728Z,34.70
2022-07-25T13:06:20.805Z,34.60
2022-07-25T13:08:48.616Z,34.60
2022-07-25T13:11:16.364Z,34.80
2022-07-25T13:13:44.062Z,35.00
2022-07-25T13:16:11.859Z,35.10
2022-07-25T13:18:39.648Z,34.70
2022-07-25T13:21:08.802Z,34.20
2022-07-25T13:23:36.707Z,33.80
2022-07-25T13:26:04.528Z,33.40
2022-07-25T13:28:32.547Z,33.00
2022-07-25T13:31:01.720Z,33.00
2022-07-25T13:33:29.678Z,33.00
2022-07-25T13:35:57.379Z,32.90
2022-07-25T13:38:26.614Z,33.40
2022-07-25T13:40:58.718Z,34.00
2022-07-25T13:43:26.740Z,34.30
2022-07-25T13:45:54.645Z,34.30
2022-07-25T13:48:31.641Z,34.50
2022-07-25T13:50:59.847Z,35.00
2022-07-25T13:53:30.585Z,35.60
2022-07-25T13:55:59.045Z,36.20
2022-07-25T13:58:27.040Z,36.70
2022-07-25T14:00:55.049Z,36.90
2022-07-25T14:03:22.946Z,37.20
2022-07-25T14:05:50.708Z,37.10
2022-07-25T14:08:18.532Z,37.20
2022-07-25T14:10:47.668Z,37.10
2022-07-25T14:13:15.841Z,37.20
2022-07-25T14:15:43.530Z,37.00
2022-07-25T14:18:11.474Z,36.70
2022-07-25T14:20:39.250Z,36.60
2022-07-25T14:23:07.007Z,36.30
2022-07-25T14:25:34.706Z,35.90
2022-07-25T14:28:03.851Z,35.70
2022-07-25T14:30:31.553Z,35.40
2022-07-25T14:32:59.294Z,35.10
2022-07-25T14:35:32.101Z,34.90
2022-07-25T14:38:00.457Z,34.90
2022-07-25T14:40:28.398Z,35.00
2022-07-25T14:42:56.095Z,34.90
2022-07-25T14:45:25.158Z,35.10
2022-07-25T14:47:53.923Z,35.30
2022-07-25T14:50:21.780Z,35.10
2022-07-25T14:52:49.509Z,34.80
2022-07-25T14:55:18.696Z,34.70
2022-07-25T14:57:46.431Z,35.00
2022-07-25T15:00:14.693Z,35.60
2022-07-25T15:02:44.114Z,36.20
2022-07-25T15:05:11.915Z,36.60
2022-07-25T15:07:39.982Z,36.80
2022-07-25T15:10:08.376Z,36.70
2022-07-25T15:12:36.358Z,36.60
2022-07-25T15:15:04.351Z,36.60
2022-07-25T15:17:32.113Z,36.60
2022-07-25T15:20:01.215Z,37.10
2022-07-25T15:22:29.015Z,37.00
2022-07-25T15:25:27.544Z,36.60
2022-07-25T15:27:44.464Z,36.00
2022-07-25T15:30:14.452Z,35.50
2022-07-25T15:32:42.175Z,35.50
2022-07-25T15:35:11.322Z,35.60
2022-07-25T15:37:39.093Z,35.80
2022-07-25T15:40:07.315Z,35.80
2022-07-25T15:42:35.100Z,35.90
2022-07-25T15:45:32.166Z,35.70
2022-07-25T15:47:51.346Z,35.30
2022-07-25T15:50:20.676Z,34.90
2022-07-25T15:52:48.523Z,34.70
2022-07-25T15:55:16.340Z,34.70
2022-07-25T15:57:44.136Z,34.40
2022-07-25T16:00:12.321Z,34.30
2022-07-25T16:02:40.112Z,34.00
2022-07-25T16:05:08.108Z,33.90
2022-07-25T16:07:37.500Z,33.70
2022-07-25T16:10:05.892Z,33.50
2022-07-25T16:12:33.653Z,33.60
2022-07-25T16:15:01.581Z,33.60
2022-07-25T16:17:29.288Z,33.50
2022-07-25T16:19:57.043Z,33.30
2022-07-25T16:22:24.997Z,33.20
2022-07-25T16:24:54.121Z,33.10
2022-07-25T16:27:21.851Z,33.20
2022-07-25T16:29:49.593Z,33.20
2022-07-25T16:32:17.304Z,33.20
2022-07-25T16:34:46.126Z,33.20
2022-07-25T16:37:14.114Z,33.10
2022-07-25T16:39:41.866Z,33.10
2022-07-25T16:42:11.003Z,32.80
2022-07-25T16:44:38.713Z,32.70
2022-07-25T16:47:07.650Z,32.50
2022-07-25T16:49:35.514Z,32.40
2022-07-25T16:52:03.267Z,32.20
2022-07-25T16:54:31.432Z,32.10
2022-07-25T16:56:59.901Z,32.10
2022-07-25T16:59:29.130Z,32.00
2022-07-25T17:01:56.967Z,31.80
2022-07-25T17:04:25.164Z,31.70
2022-07-25T17:06:52.932Z,31.60
2022-07-25T17:09:20.900Z,31.60
2022-07-25T17:11:48.638Z,31.50
2022-07-25T17:14:16.388Z,31.10
2022-07-25T17:16:45.645Z,30.80
2022-07-25T17:19:13.606Z,30.60
2022-07-25T17:21:41.331Z,30.40
2022-07-25T17:24:09.364Z,30.30
2022-07-25T17:26:37.310Z,30.20
2022-07-25T17:29:07.630Z,30.20
2022-07-25T17:31:35.770Z,30.10
2022-07-25T17:34:04.931Z,30.00
2022-07-25T17:36:32.687Z,30.00
2022-07-25T17:39:00.391Z,29.70
2022-07-25T17:41:28.113Z,29.60
2022-07-25T17:43:55.820Z,29.50
2022-07-25T17:46:23.601Z,29.30
2022-07-25T17:48:51.465Z,29.10
2022-07-25T17:51:20.594Z,28.90
2022-07-25T17:53:48.400Z,28.80
2022-07-25T17:56:16.237Z,28.60
2022-07-25T17:58:44.007Z,28.50
2022-07-25T18:01:11.779Z,28.40
2022-07-25T18:03:39.627Z,28.30
2022-07-25T18:06:07.437Z,28.30
2022-07-25T18:08:36.524Z,28.10
2022-07-25T18:11:04.364Z,28.10
2022-07-25T18:13:32.094Z,28.00
2022-07-25T18:15:59.869Z,27.90
2022-07-25T18:18:27.842Z,27.80
2022-07-25T18:20:55.566Z,27.80
2022-07-25T18:23:24.217Z,27.50
2022-07-25T18:25:54.256Z,27.40
2022-07-25T18:28:22.073Z,27.30
2022-07-25T18:30:49.811Z,27.10
2022-07-25T18:33:17.632Z,27.00
2022-07-25T18:35:45.487Z,26.90
2022-07-25T18:38:13.232Z,26.80
2022-07-25T18:40:41.054Z,26.70
2022-07-25T18:43:10.165Z,26.60
2022-07-25T18:45:38.405Z,26.50
2022-07-25T18:48:07.496Z,26.40
2022-07-25T18:50:35.311Z,26.30
2022-07-25T18:53:03.028Z,26.30
2022-07-25T18:55:30.761Z,26.10
2022-07-25T18:57:58.544Z,26.00
2022-07-25T19:00:27.575Z,25.90
2022-07-25T19:02:55.430Z,25.80
2022-07-25T19:05:23.292Z,25.80
2022-07-25T19:07:51.084Z,25.70
2022-07-25T19:10:18.863Z,25.60
2022-07-25T19:12:46.573Z,25.60
2022-07-25T19:15:15.421Z,25.50
2022-07-25T19:17:44.560Z,25.50
2022-07-25T19:20:12.648Z,25.40
2022-07-25T19:22:40.538Z,25.30
2022-07-25T19:25:10.925Z,25.30
2022-07-25T19:27:39.690Z,25.20
2022-07-25T19:30:13.887Z,25.20
2022-07-25T19:32:46.958Z,25.10
2022-07-25T19:35:14.666Z,25.00
2022-07-25T19:37:42.406Z,25.00
2022-07-25T19:40:10.781Z,24.90
2022-07-25T19:42:39.467Z,25.00
2022-07-25T19:45:07.834Z,24.80
2022-07-25T19:47:35.568Z,24.80
2022-07-25T19:50:04.794Z,24.70
2022-07-25T19:52:32.499Z,24.60
2022-07-25T19:55:00.283Z,24.60
2022-07-25T19:57:28.088Z,24.60
2022-07-25T19:59:55.812Z,24.70
2022-07-25T20:02:23.586Z,24.60
2022-07-25T20:04:51.548Z,24.60
2022-07-25T20:07:20.946Z,24.60
2022-07-25T20:09:48.692Z,24.70
2022-07-25T20:12:17.195Z,24.70
2022-07-25T20:14:44.937Z,24.70
2022-07-25T20:17:12.840Z,24.70
2022-07-25T20:19:40.612Z,24.60
2022-07-25T20:22:08.414Z,24.70
2022-07-25T20:24:37.508Z,24.70
2022-07-25T20:27:05.248Z,24.70
2022-07-25T20:29:32.966Z,24.80
2022-07-25T20:32:00.732Z,24.70
2022-07-25T20:34:28.433Z,24.70
2022-07-25T20:36:56.245Z,24.60
2022-07-25T20:39:24.011Z,24.60
2022-07-25T20:41:53.097Z,24.50
2022-07-25T20:44:20.947Z,24.50
2022-07-25T20:46:48.741Z,24.60
2022-07-25T20:49:16.630Z,24.50
2022-07-25T20:51:44.459Z,24.40
2022-07-25T20:54:12.738Z,24.50
2022-07-25T20:56:40.432Z,24.50
2022-07-25T20:59:09.918Z,24.50
2022-07-25T21:01:38.522Z,24.50
2022-07-25T21:04:07.804Z,24.40
2022-07-25T21:06:36.888Z,24.40
2022-07-25T21:09:05.550Z,24.50
2022-07-25T21:11:33.736Z,24.50
2022-07-25T21:14:01.501Z,24.40
2022-07-25T21:16:30.715Z,24.40
2022-07-25T21:18:58.558Z,24.40
2022-07-25T21:21:26.575Z,24.40
2022-07-25T21:23:54.424Z,24.50
2022-07-25T21:26:22.187Z,24.40
2022-07-25T21:28:49.900Z,24.40
2022-07-25T21:31:18.273Z,24.30
2022-07-25T21:33:47.370Z,24.30
2022-07-25T21:36:15.065Z,24.20
2022-07-25T21:38:42.792Z,24.20
2022-07-25T21:41:10.496Z,24.10
2022-07-25T21:43:38.182Z,24.10
2022-07-25T21:46:06.102Z,24.10
2022-07-25T21:48:47.922Z,24.10
2022-07-25T21:51:23.025Z,24.00
2022-07-25T21:53:52.482Z,24.00
2022-07-25T21:56:20.463Z,23.90
2022-07-25T21:58:48.842Z,23.70
2022-07-25T22:01:16.753Z,23.60
2022-07-25T22:03:44.658Z,23.50
2022-07-25T22:06:12.421Z,23.40
2022-07-25T22:08:41.455Z,23.40
2022-07-25T22:11:35.805Z,23.40
2022-07-25T22:13:59.319Z,23.40
2022-07-25T22:16:27.188Z,23.30
2022-07-25T22:18:54.944Z,23.30
2022-07-25T22:21:22.680Z,23.30
2022-07-25T22:23:51.768Z,23.30
2022-07-25T22:26:20.278Z,23.30
2022-07-25T22:28:48.043Z,23.30
2022-07-25T22:31:16.286Z,23.30
2022-07-25T22:33:44.032Z,23.30
2022-07-25T22:36:11.900Z,23.20
2022-07-25T22:38:39.666Z,23.20
2022-07-25T22:41:12.360Z,23.20
2022-07-25T22:43:48.699Z,23.20
2022-07-25T22:46:27.157Z,23.10
2022-07-25T22:48:55.008Z,23.10
2022-07-25T22:51:22.825Z,23.00
2022-07-25T22:53:50.536Z,23.00
2022-07-25T22:56:19.619Z,23.00
2022-07-25T22:58:48.927Z,23.00
2022-07-25T23:01:17.170Z,22.90
2022-07-25T23:03:45.050Z,22.80
2022-07-25T23:06:13.049Z,22.70
2022-07-25T23:08:41.497Z,22.70
2022-07-25T23:11:09.437Z,22.60
2022-07-25T23:13:38.460Z,22.60
2022-07-25T23:16:10.516Z,22.50
2022-07-25T23:18:38.520Z,22.50
2022-07-25T23:21:06.270Z,22.50
2022-07-25T23:23:34.297Z,22.50
2022-07-25T23:26:02.045Z,22.40
2022-07-25T23:28:29.841Z,22.40
2022-07-25T23:30:58.876Z,22.40
2022-07-25T23:33:26.950Z,22.30
2022-07-25T23:35:54.738Z,22.30
2022-07-25T23:38:22.551Z,22.30
2022-07-25T23:40:50.603Z,22.30
2022-07-25T23:43:23.543Z,22.30
2022-07-25T23:46:07.682Z,22.20
2022-07-25T23:48:35.777Z,22.20
2022-07-25T23:51:03.492Z,22.20
2022-07-25T23:53:34.511Z,22.10
2022-07-25T23:56:02.181Z,22.10
2022-07-25T23:58:29.853Z,22.10
